DLH139 EDDS-EDDF
Flight info
| Callsign | DLH139 |
|---|---|
| Flight time | N/A |
| Altitude | 20000 |
| Route | ETASA4B ETASA T163 SPESA SPESA5B |
| Aircraft | A319/M-VGDW/C |
Departure
| Time | 2026-05-05 18:12 |
|---|---|
| Airport | Stuttgart Airport (EDDS) |
Arrival
| Time | N/A |
|---|---|
| Airport | Frankfurt Main Airport (EDDF) |
| Time | Latitude | Longitude | Altitude | Speed | Heading |
|---|---|---|---|---|---|
| 2026-05-05 17:38 | 48.68944 | 9.19719 | 1286 ft | 0 kts | 343° |
| 2026-05-05 17:58 | 48.68943 | 9.19719 | 1285 ft | 2 kts | 343° |
| 2026-05-05 17:59 | 48.68919 | 9.19735 | 1291 ft | 4 kts | 320° |
| 2026-05-05 17:59 | 48.68904 | 9.19764 | 1291 ft | 4 kts | 289° |
| 2026-05-05 17:59 | 48.68900 | 9.19804 | 1289 ft | 4 kts | 263° |
| 2026-05-05 17:59 | 48.68906 | 9.19843 | 1290 ft | 4 kts | 249° |
| 2026-05-05 18:00 | 48.68917 | 9.19880 | 1285 ft | 4 kts | 241° |
| 2026-05-05 18:00 | 48.68930 | 9.19916 | 1291 ft | 4 kts | 236° |
| 2026-05-05 18:00 | 48.68945 | 9.19947 | 1288 ft | 4 kts | 233° |
| 2026-05-05 18:00 | 48.68962 | 9.19981 | 1288 ft | 3 kts | 236° |
| 2026-05-05 18:01 | 48.68963 | 9.19985 | 1289 ft | 0 kts | 236° |
| 2026-05-05 18:04 | 48.68962 | 9.19982 | 1288 ft | 2 kts | 235° |
| 2026-05-05 18:04 | 48.68937 | 9.19926 | 1288 ft | 10 kts | 236° |
| 2026-05-05 18:04 | 48.68884 | 9.19868 | 1285 ft | 10 kts | 174° |
| 2026-05-05 18:04 | 48.68822 | 9.19909 | 1288 ft | 10 kts | 140° |
| 2026-05-05 18:05 | 48.68812 | 9.20006 | 1285 ft | 10 kts | 57° |
| 2026-05-05 18:05 | 48.68846 | 9.20093 | 1286 ft | 10 kts | 64° |
| 2026-05-05 18:05 | 48.68871 | 9.20211 | 1285 ft | 13 kts | 73° |
| 2026-05-05 18:05 | 48.68897 | 9.20344 | 1285 ft | 13 kts | 73° |
| 2026-05-05 18:06 | 48.68923 | 9.20481 | 1288 ft | 14 kts | 76° |
| 2026-05-05 18:06 | 48.68940 | 9.20574 | 1287 ft | 14 kts | 74° |
| 2026-05-05 18:06 | 48.68981 | 9.20790 | 1289 ft | 15 kts | 73° |
| 2026-05-05 18:06 | 48.69006 | 9.20919 | 1287 ft | 15 kts | 74° |
| 2026-05-05 18:07 | 48.69042 | 9.21111 | 1285 ft | 23 kts | 74° |
| 2026-05-05 18:07 | 48.69089 | 9.21357 | 1285 ft | 24 kts | 74° |
| 2026-05-05 18:07 | 48.69135 | 9.21600 | 1289 ft | 24 kts | 74° |
| 2026-05-05 18:07 | 48.69181 | 9.21843 | 1286 ft | 24 kts | 74° |
| 2026-05-05 18:08 | 48.69227 | 9.22084 | 1288 ft | 24 kts | 74° |
| 2026-05-05 18:08 | 48.69272 | 9.22322 | 1285 ft | 23 kts | 73° |
| 2026-05-05 18:08 | 48.69317 | 9.22559 | 1285 ft | 23 kts | 74° |
| 2026-05-05 18:08 | 48.69363 | 9.22803 | 1285 ft | 23 kts | 74° |
| 2026-05-05 18:09 | 48.69408 | 9.23039 | 1285 ft | 23 kts | 74° |
| 2026-05-05 18:09 | 48.69452 | 9.23274 | 1288 ft | 23 kts | 74° |
| 2026-05-05 18:09 | 48.69497 | 9.23509 | 1288 ft | 23 kts | 74° |
| 2026-05-05 18:09 | 48.69540 | 9.23739 | 1287 ft | 23 kts | 73° |
| 2026-05-05 18:10 | 48.69585 | 9.23973 | 1287 ft | 23 kts | 73° |
| 2026-05-05 18:10 | 48.69599 | 9.24202 | 1285 ft | 18 kts | 113° |
| 2026-05-05 18:10 | 48.69533 | 9.24298 | 1287 ft | 9 kts | 162° |
| 2026-05-05 18:10 | 48.69512 | 9.24308 | 1286 ft | 2 kts | 162° |
| 2026-05-05 18:11 | 48.69469 | 9.24328 | 1287 ft | 11 kts | 164° |
| 2026-05-05 18:11 | 48.69397 | 9.24340 | 1285 ft | 9 kts | 207° |
| 2026-05-05 18:11 | 48.69376 | 9.24252 | 1288 ft | 10 kts | 255° |
| 2026-05-05 18:11 | 48.69305 | 9.23875 | 1287 ft | 80 kts | 254° |
| 2026-05-05 18:12 | 48.69159 | 9.23117 | 1287 ft | 136 kts | 253° |
| 2026-05-05 18:12 | 48.68740 | 9.20895 | 1832 ft | 171 kts | 253° |
| 2026-05-05 18:12 | 48.68496 | 9.19645 | 2450 ft | 172 kts | 253° |
| 2026-05-05 18:12 | 48.68043 | 9.17325 | 3235 ft | 184 kts | 253° |
| 2026-05-05 18:13 | 48.67793 | 9.16044 | 3394 ft | 204 kts | 253° |
| 2026-05-05 18:13 | 48.67362 | 9.13823 | 3750 ft | 227 kts | 253° |
| 2026-05-05 18:13 | 48.66979 | 9.11487 | 4609 ft | 232 kts | 263° |
| 2026-05-05 18:13 | 48.67362 | 9.09102 | 4908 ft | 238 kts | 296° |
| 2026-05-05 18:14 | 48.68472 | 9.07020 | 5178 ft | 249 kts | 319° |
| 2026-05-05 18:14 | 48.70011 | 9.05965 | 5840 ft | 270 kts | 340° |
| 2026-05-05 18:14 | 48.71857 | 9.05173 | 6571 ft | 280 kts | 339° |
| 2026-05-05 18:14 | 48.73843 | 9.04233 | 7503 ft | 283 kts | 338° |
| 2026-05-05 18:15 | 48.75635 | 9.03332 | 8345 ft | 287 kts | 337° |
| 2026-05-05 18:15 | 48.77556 | 9.02388 | 9215 ft | 294 kts | 342° |
| 2026-05-05 18:15 | 48.79686 | 9.02082 | 10064 ft | 305 kts | 0° |
| 2026-05-05 18:15 | 48.81770 | 9.02699 | 10512 ft | 329 kts | 18° |
| 2026-05-05 18:16 | 48.83899 | 9.04411 | 10757 ft | 355 kts | 31° |
| 2026-05-05 18:16 | 48.86061 | 9.06413 | 11147 ft | 371 kts | 27° |
| 2026-05-05 18:16 | 48.88473 | 9.07996 | 11828 ft | 375 kts | 15° |
| 2026-05-05 18:16 | 48.90990 | 9.08834 | 12560 ft | 376 kts | 4° |
| 2026-05-05 18:17 | 48.93637 | 9.09203 | 13324 ft | 379 kts | 2° |
| 2026-05-05 18:17 | 48.96298 | 9.09566 | 13722 ft | 382 kts | 3° |
| 2026-05-05 18:17 | 48.98958 | 9.09942 | 13814 ft | 382 kts | 3° |
| 2026-05-05 18:17 | 49.01605 | 9.10325 | 13835 ft | 382 kts | 3° |
| 2026-05-05 18:18 | 49.04250 | 9.10706 | 13830 ft | 382 kts | 3° |
| 2026-05-05 18:18 | 49.07134 | 9.11123 | 13833 ft | 382 kts | 3° |
| 2026-05-05 18:18 | 49.09572 | 9.11474 | 13840 ft | 382 kts | 3° |
| 2026-05-05 18:18 | 49.12242 | 9.11852 | 14405 ft | 386 kts | 3° |
| 2026-05-05 18:19 | 49.14964 | 9.12241 | 15127 ft | 389 kts | 4° |
| 2026-05-05 18:19 | 49.17630 | 9.12626 | 15789 ft | 392 kts | 4° |
| 2026-05-05 18:19 | 49.20341 | 9.13019 | 16447 ft | 395 kts | 4° |
| 2026-05-05 18:19 | 49.23093 | 9.13418 | 17090 ft | 399 kts | 4° |
| 2026-05-05 18:20 | 49.25994 | 9.13828 | 17752 ft | 403 kts | 4° |
| 2026-05-05 18:20 | 49.28703 | 9.14210 | 18325 ft | 407 kts | 4° |
| 2026-05-05 18:20 | 49.31516 | 9.14610 | 18874 ft | 410 kts | 4° |
| 2026-05-05 18:20 | 49.34444 | 9.15030 | 19453 ft | 413 kts | 5° |
| 2026-05-05 18:21 | 49.37315 | 9.15443 | 19750 ft | 415 kts | 5° |
| 2026-05-05 18:21 | 49.40197 | 9.15855 | 19820 ft | 423 kts | 5° |
| 2026-05-05 18:21 | 49.43157 | 9.16276 | 19572 ft | 425 kts | 5° |
| 2026-05-05 18:21 | 49.46092 | 9.16693 | 19252 ft | 420 kts | 4° |
| 2026-05-05 18:22 | 49.48997 | 9.17105 | 18711 ft | 418 kts | 4° |
| 2026-05-05 18:22 | 49.51923 | 9.17519 | 18200 ft | 416 kts | 4° |
| 2026-05-05 18:22 | 49.54800 | 9.17931 | 17640 ft | 414 kts | 4° |
| 2026-05-05 18:22 | 49.57651 | 9.18343 | 17134 ft | 410 kts | 4° |
| 2026-05-05 18:23 | 49.60475 | 9.18759 | 16626 ft | 406 kts | 4° |
| 2026-05-05 18:23 | 49.63318 | 9.19584 | 16089 ft | 404 kts | 15° |
| 2026-05-05 18:23 | 49.65900 | 9.21184 | 15569 ft | 403 kts | 26° |
| 2026-05-05 18:23 | 49.68257 | 9.23535 | 15015 ft | 402 kts | 38° |
| 2026-05-05 18:24 | 49.70332 | 9.26528 | 14451 ft | 400 kts | 44° |
| 2026-05-05 18:24 | 49.72496 | 9.29163 | 13885 ft | 397 kts | 30° |
| 2026-05-05 18:24 | 49.75021 | 9.31033 | 13225 ft | 394 kts | 18° |
| 2026-05-05 18:24 | 49.77623 | 9.32082 | 12594 ft | 389 kts | 8° |
| 2026-05-05 18:25 | 49.80288 | 9.32762 | 12006 ft | 383 kts | 0° |
| 2026-05-05 18:25 | 49.81182 | 9.32761 | 11925 ft | 377 kts | 354° |
| 2026-05-05 18:25 | 49.85210 | 9.30675 | 11826 ft | 369 kts | 323° |